BZN weather

Gallatin Field
Bozeman, Montana, United States

Public forecast

Using degrees Fahrenheit for public forecast. Weather courtesy of forecast.io.

Current aviation weather report (METAR) for Gallatin Field

Retrieved 2020/07/03 17:56 UTC (45 minutes ago):

KBZN 031756Z VRB03KT 10SM CLR 23/09 A3011 RMK AO2 SLP164 T02280094 10228 20078 58005

Aviation forecast (TAF) for Gallatin Field

Retrieved 2020/07/03 18:42 UTC (0 seconds ago):

TAF KHVR 031740Z 0318/0418 VRB06KT P6SM SCT250 TAF KBZN 031740Z 0318/0424 VRB05KT P6SM BKN200 FM032100 VRB06KT P6SM SCT080 BKN100 TEMPO 0321/0401 VRB35G45KT 5SM -TSRA BKN080CB